Airfield :
LOGIN :

Register | Disclaimer

   EN    FR    IT 

 










Legend :    VFR   Marginal VFR   IFR   Intensive IFR   Very Intensive IFR
Visi :
Ceiling :
>= 8 km
>= 3000ft
5 to 8 km
1000 to 3000 ft
1500m to 5 km
500 to 1000 ft
800 to 1500m
200 to 500 ft
< 800m
< 200 ft
Symbols :   Thunderstorms  Fog  Heavy snow  Heavy precipitations  Wind > 20 kt
SIGMETs :     Misc.  Thunderstorms  Icing  Turbulence  Mountain Waves  Volcanic Ashes







- Airport Elevation : 1791 ft
- IATA code : AOT


LIMW - Aosta

CURRENT METAR :
  • 141820Z AUTO 30009KT 250V340 9999 BKN110/// 26/09 Q1014

EXPIRED METARs :
  • 141750Z AUTO 31011G22KT 260V360 9999 OVC110/// 26/09 Q1014
  • 141720Z AUTO 30011G23KT 260V330 9999 BKN100/// 27/09 Q1013
  • 141650Z AUTO 28013KT 250V330 9999 OVC100/// 28/09 Q1013
  • 141550Z AUTO 29015KT 260V320 9999 BKN120/// 29/09 Q1012

TAF TAF LIMW
Valid from the 14 at 18:00 until the 15 at 03:00 UTC


141700Z 1418/1503 29015KT 9999 SCT110
BECMG 1419/1421 VRB05KT
No reported NOTAMs for that airfield.
3 SIGMETs reported for the Milano FIR (LIMM) :
 
Embedded thunderstorms
LIMM SIGMET 6 VALID 141810/142010 LIIP
LIMM MILANO FIR EMBD TS FCST E OF LINE N4706 E01100 - N4322 E00834 TOP FL390 MOV E NC=
Severe turbulence
LIMM SIGMET 5 VALID 141800/142000 LIIP
LIMM MILANO FIR SEV TURB FCST W OF LINE N4658 E01038 - N4327 E01024 FL240/380 MOV E NC=
Embedded thunderstorms
LIMM SIGMET 4 VALID 141410/141810 LIIP
LIMM MILANO FIR EMBD TS FCST SE OF LINE N4405 E00658 - N4644 E01247 TOP FL420 STNR NC=



MET'MAP, your aeronautical weather chart ! - Copyright ORBIFLY December 2007 - Disclaimer

ORBIFLY MET'MAP TEAM :

Programming & Development : Alexandra Zaïnal
Concept & Development : Baudouin d'Aumeries
Co-Development & Prog : Marc-Olivier Méhu
Technical & hardware support : Manuel Goepfert

Contact : metmap@orbifly.com




SOURCES & CREDITS :

   NOAA